Time;durP1;ratioP1;P1;durP2;ratioP2;P2;SDS_P1;SDS_P2;PMS_P1;PMS_P2;Temp;Humidity;BMP_temperature;BMP_pressure;BME280_temperature;BME280_humidity;BME280_pressure;Samples;Min_cycle;Max_cycle;Signal;HPM_P1;HPM_P2
2023/08/25 00:00:38;;;;;;;1.35;1.00;;;16.30;54.10;;;;;;5016480;28;20045;-67
2023/08/25 00:03:06;;;;;;;2.33;0.93;;;16.30;54.20;;;;;;5007960;28;20505;-69
2023/08/25 00:05:37;;;;;;;1.05;0.82;;;16.20;54.10;;;;;;5017207;28;20401;-73
2023/08/25 00:08:04;;;;;;;2.08;0.80;;;16.20;54.20;;;;;;5009581;28;20034;-70
2023/08/25 00:10:31;;;;;;;3.10;1.75;;;16.20;54.30;;;;;;5019422;28;20465;-68
2023/08/25 00:12:57;;;;;;;1.63;1.05;;;16.10;54.30;;;;;;5007956;28;20049;-68
2023/08/25 00:15:23;;;;;;;2.05;0.80;;;16.00;54.20;;;;;;5009140;28;20037;-73
2023/08/25 00:17:55;;;;;;;1.75;0.77;;;16.00;54.40;;;;;;5012044;28;20487;-68
2023/08/25 00:20:21;;;;;;;1.83;1.45;;;15.90;54.30;;;;;;5018965;28;20026;-73
2023/08/25 00:22:47;;;;;;;5.18;1.02;;;15.90;54.30;;;;;;5018391;28;20467;-69
2023/08/25 00:25:13;;;;;;;3.25;1.05;;;15.90;54.50;;;;;;5018523;28;20038;-69
2023/08/25 00:27:40;;;;;;;2.08;0.90;;;15.80;54.40;;;;;;5014510;28;20055;-72
2023/08/25 00:30:08;;;;;;;2.75;1.35;;;15.80;54.50;;;;;;5011554;28;20668;-70
2023/08/25 00:32:34;;;;;;;2.78;0.80;;;15.70;54.40;;;;;;5016906;28;20045;-72
2023/08/25 00:35:00;;;;;;;2.83;0.80;;;15.60;54.30;;;;;;5018103;28;20500;-70
2023/08/25 00:37:27;;;;;;;2.83;1.00;;;15.60;54.50;;;;;;5020101;28;20088;-73
2023/08/25 00:39:53;;;;;;;1.08;0.60;;;15.60;54.60;;;;;;5021571;28;20096;-73
2023/08/25 00:42:19;;;;;;;1.45;0.93;;;15.50;54.50;;;;;;5017411;28;20163;-71
2023/08/25 00:44:45;;;;;;;3.17;1.00;;;15.50;54.70;;;;;;5007128;28;20580;-71
2023/08/25 00:47:11;;;;;;;1.00;0.60;;;15.40;54.60;;;;;;5016297;28;20324;-70
2023/08/25 00:49:38;;;;;;;3.80;1.38;;;15.40;54.70;;;;;;5011958;28;20049;-73
2023/08/25 00:52:05;;;;;;;2.08;0.98;;;15.30;54.70;;;;;;5011151;28;20037;-70
2023/08/25 00:54:34;;;;;;;1.75;0.90;;;15.30;54.80;;;;;;5020734;28;20066;-72
2023/08/25 00:57:03;;;;;;;2.90;0.77;;;15.20;54.80;;;;;;5022657;28;20033;-69
2023/08/25 00:59:33;;;;;;;2.80;1.10;;;15.10;54.70;;;;;;5019826;28;20029;-70
2023/08/25 01:02:00;;;;;;;3.30;1.63;;;15.10;54.80;;;;;;5004607;28;20377;-69
2023/08/25 01:04:26;;;;;;;2.17;0.80;;;15.10;54.90;;;;;;5026060;28;20034;-69
2023/08/25 01:06:54;;;;;;;1.85;0.70;;;15.00;54.80;;;;;;5015623;28;20401;-71
2023/08/25 01:09:21;;;;;;;1.48;0.98;;;15.00;54.90;;;;;;5007449;28;20121;-70
2023/08/25 01:11:56;;;;;;;3.30;0.88;;;15.00;55.00;;;;;;5013244;28;20277;-73
2023/08/25 01:14:34;;;;;;;1.90;0.77;;;14.90;55.00;;;;;;5008487;28;20473;-68
2023/08/25 01:17:04;;;;;;;0.90;0.80;;;14.90;55.10;;;;;;5006771;28;20025;-72
2023/08/25 01:19:36;;;;;;;1.35;0.70;;;14.80;55.00;;;;;;5008360;28;20061;-72
2023/08/25 01:22:09;;;;;;;2.60;1.30;;;14.80;55.10;;;;;;5005408;28;20022;-71
2023/08/25 01:24:38;;;;;;;0.88;0.52;;;14.80;55.30;;;;;;5007515;28;20188;-73
2023/08/25 01:27:04;;;;;;;4.25;0.73;;;14.80;55.30;;;;;;5012141;28;20148;-68
2023/08/25 01:29:30;;;;;;;1.00;0.77;;;14.70;55.30;;;;;;5020584;28;20132;-72
2023/08/25 01:31:57;;;;;;;0.75;0.70;;;14.70;55.90;;;;;;5014847;28;20041;-68
2023/08/25 01:34:24;;;;;;;0.85;0.80;;;14.60;55.30;;;;;;5017469;28;20021;-73
2023/08/25 01:37:03;;;;;;;3.15;1.20;;;14.60;55.40;;;;;;5020529;28;20044;-70
2023/08/25 01:39:33;;;;;;;2.13;0.80;;;14.60;55.60;;;;;;5013583;28;20113;-70
2023/08/25 01:42:05;;;;;;;1.23;1.05;;;14.50;55.40;;;;;;5010280;28;20033;-70
2023/08/25 01:44:34;;;;;;;1.90;0.80;;;14.50;55.60;;;;;;5018238;28;20326;-69
2023/08/25 01:47:06;;;;;;;1.90;0.95;;;14.50;55.60;;;;;;5020931;28;20584;-71
2023/08/25 01:49:32;;;;;;;3.88;1.02;;;14.40;55.50;;;;;;5016030;28;20617;-68
2023/08/25 01:52:00;;;;;;;1.80;0.80;;;14.40;55.60;;;;;;5024201;28;20045;-69
2023/08/25 01:54:26;;;;;;;1.05;0.70;;;14.40;55.70;;;;;;5017855;28;20360;-69
2023/08/25 01:56:52;;;;;;;2.78;1.02;;;14.40;55.80;;;;;;5016651;28;20254;-68
2023/08/25 01:59:19;;;;;;;1.58;1.05;;;14.30;55.70;;;;;;5014341;28;20494;-69
2023/08/25 02:01:45;;;;;;;1.98;0.70;;;14.30;55.80;;;;;;5016910;28;20037;-71
2023/08/25 02:04:11;;;;;;;1.30;0.80;;;14.30;55.90;;;;;;5022425;28;20510;-71
2023/08/25 02:06:37;;;;;;;1.73;0.90;;;14.20;55.80;;;;;;5018960;28;20037;-69
2023/08/25 02:09:04;;;;;;;0.98;0.88;;;14.20;55.90;;;;;;5025173;28;20061;-68
2023/08/25 02:11:31;;;;;;;2.60;0.75;;;14.20;56.00;;;;;;5015587;28;20034;-69
2023/08/25 02:13:57;;;;;;;2.00;1.17;;;14.10;55.90;;;;;;5002962;28;20375;-68
2023/08/25 02:16:23;;;;;;;0.98;0.80;;;14.10;56.00;;;;;;5016502;28;20381;-71
2023/08/25 02:18:49;;;;;;;1.95;0.90;;;14.00;55.90;;;;;;5004814;28;20034;-69
2023/08/25 02:21:15;;;;;;;2.53;1.08;;;14.00;56.10;;;;;;5019091;28;20105;-67
2023/08/25 02:23:41;;;;;;;1.77;0.90;;;14.00;56.20;;;;;;5020330;28;20128;-67
2023/08/25 02:26:07;;;;;;;2.85;1.10;;;14.00;56.20;;;;;;5020777;28;20045;-68
2023/08/25 02:28:33;;;;;;;0.88;0.70;;;14.00;56.30;;;;;;5019295;28;20521;-67
2023/08/25 02:30:59;;;;;;;1.30;0.80;;;13.90;56.20;;;;;;5014115;28;20040;-67
2023/08/25 02:33:25;;;;;;;1.58;0.88;;;13.90;56.30;;;;;;5020695;28;20037;-69
2023/08/25 02:35:51;;;;;;;3.35;0.93;;;13.90;56.30;;;;;;5018767;28;20057;-69
2023/08/25 02:38:18;;;;;;;1.85;0.82;;;13.90;56.40;;;;;;5016640;28;20037;-68
2023/08/25 02:40:45;;;;;;;1.58;1.00;;;13.90;56.50;;;;;;5005802;28;20235;-68
2023/08/25 02:43:11;;;;;;;0.88;0.88;;;13.90;56.60;;;;;;5017617;28;20150;-69
2023/08/25 02:45:41;;;;;;;0.98;0.60;;;13.80;56.40;;;;;;5021812;28;20089;-69
2023/08/25 02:48:07;;;;;;;1.58;0.70;;;13.90;56.70;;;;;;5012424;28;20409;-71
2023/08/25 02:50:33;;;;;;;1.23;0.65;;;13.80;56.60;;;;;;4994175;28;20053;-71
2023/08/25 02:52:59;;;;;;;1.08;0.77;;;13.80;57.20;;;;;;5017777;28;20029;-67
2023/08/25 02:55:25;;;;;;;2.80;0.98;;;13.80;56.70;;;;;;5021948;28;20033;-72
2023/08/25 02:57:52;;;;;;;1.17;0.82;;;13.70;56.70;;;;;;5019063;28;20501;-74
2023/08/25 03:00:26;;;;;;;2.83;0.80;;;13.70;56.70;;;;;;5013346;28;20144;-69
2023/08/25 03:02:54;;;;;;;3.38;1.02;;;13.70;56.90;;;;;;5010067;28;20037;-73
2023/08/25 03:05:21;;;;;;;3.22;0.90;;;13.60;56.70;;;;;;5018243;28;20028;-70
2023/08/25 03:07:53;;;;;;;2.28;0.98;;;13.60;56.90;;;;;;5021375;28;20037;-73
2023/08/25 03:10:19;;;;;;;1.48;0.60;;;13.50;56.80;;;;;;5022186;28;20026;-71
2023/08/25 03:12:45;;;;;;;2.40;0.80;;;13.50;56.90;;;;;;5011887;28;20037;-71
2023/08/25 03:15:13;;;;;;;1.40;0.90;;;13.50;57.00;;;;;;5017607;28;20033;-70
2023/08/25 03:17:41;;;;;;;1.45;1.35;;;13.50;57.10;;;;;;5016878;28;20037;-73
2023/08/25 03:20:08;;;;;;;0.98;0.82;;;13.50;57.10;;;;;;5003982;28;20534;-69
2023/08/25 03:22:35;;;;;;;1.60;1.10;;;13.50;57.20;;;;;;5014737;28;20037;-70
2023/08/25 03:25:02;;;;;;;1.35;0.90;;;13.40;57.10;;;;;;5013755;28;20033;-70
2023/08/25 03:27:32;;;;;;;2.38;0.90;;;13.40;57.20;;;;;;5022138;28;20076;-73
2023/08/25 03:29:58;;;;;;;1.67;0.90;;;13.40;57.30;;;;;;5009851;28;20029;-72
2023/08/25 03:32:25;;;;;;;1.00;0.80;;;13.30;57.20;;;;;;5017191;28;20025;-69
2023/08/25 03:34:51;;;;;;;2.00;0.70;;;13.30;57.20;;;;;;5020361;28;20029;-70
2023/08/25 03:37:18;;;;;;;1.00;0.90;;;13.30;57.20;;;;;;5018601;28;20418;-70
2023/08/25 03:39:44;;;;;;;2.15;0.75;;;13.30;57.30;;;;;;5008762;28;20064;-73
2023/08/25 03:42:09;;;;;;;1.77;0.70;;;13.30;57.40;;;;;;5012747;28;20441;-72
2023/08/25 03:44:36;;;;;;;2.13;1.48;;;13.30;57.50;;;;;;5012186;28;20036;-71
2023/08/25 03:47:02;;;;;;;1.15;0.80;;;13.20;57.40;;;;;;5015607;28;20064;-72
2023/08/25 03:49:30;;;;;;;2.35;0.68;;;13.20;57.50;;;;;;5014502;28;20109;-69
2023/08/25 03:51:58;;;;;;;2.00;1.00;;;13.20;57.50;;;;;;5008946;28;20040;-72
2023/08/25 03:54:24;;;;;;;4.05;1.38;;;13.10;57.50;;;;;;5016006;28;20052;-71
2023/08/25 03:56:50;;;;;;;1.13;0.60;;;13.10;57.50;;;;;;5018678;28;20043;-71
2023/08/25 03:59:16;;;;;;;1.98;0.70;;;13.10;57.50;;;;;;5014407;28;20022;-72
2023/08/25 04:01:42;;;;;;;1.65;1.05;;;13.10;57.60;;;;;;5017463;28;20115;-75
2023/08/25 04:04:08;;;;;;;1.75;0.80;;;13.10;57.70;;;;;;5013177;28;20442;-69
2023/08/25 04:06:35;;;;;;;3.25;0.90;;;13.00;57.60;;;;;;5013929;28;20633;-70
2023/08/25 04:09:01;;;;;;;0.70;0.70;;;13.00;57.70;;;;;;5017988;28;20029;-70
2023/08/25 04:11:27;;;;;;;2.85;0.98;;;13.00;57.80;;;;;;5016411;28;20060;-72
2023/08/25 04:13:52;;;;;;;1.05;0.95;;;13.00;57.90;;;;;;5011177;28;20037;-73
2023/08/25 04:16:18;;;;;;;1.58;0.85;;;12.90;57.80;;;;;;5013213;28;20040;-72
2023/08/25 04:18:46;;;;;;;0.80;0.77;;;12.90;57.80;;;;;;5018860;28;20041;-69
2023/08/25 04:21:11;;;;;;;1.27;0.90;;;12.90;57.90;;;;;;5021422;28;20134;-73
2023/08/25 04:23:37;;;;;;;0.75;0.75;;;12.80;57.80;;;;;;5014172;28;20033;-72
2023/08/25 04:26:04;;;;;;;1.67;0.95;;;12.80;57.80;;;;;;5020049;28;20574;-71
2023/08/25 04:28:30;;;;;;;0.95;0.88;;;12.80;57.90;;;;;;5011409;28;20109;-73
2023/08/25 04:30:56;;;;;;;0.70;0.70;;;12.70;57.80;;;;;;5017306;28;20098;-70
2023/08/25 04:33:28;;;;;;;4.30;1.27;;;12.70;57.90;;;;;;5017696;28;20521;-71
2023/08/25 04:35:54;;;;;;;1.08;0.70;;;12.70;57.90;;;;;;5011912;28;20037;-70
2023/08/25 04:38:20;;;;;;;1.98;0.93;;;12.70;58.10;;;;;;5007568;28;20434;-68
2023/08/25 04:40:49;;;;;;;3.53;1.02;;;12.60;57.90;;;;;;5017489;28;20370;-69
2023/08/25 04:43:14;;;;;;;2.38;0.82;;;12.60;58.00;;;;;;5014981;28;20361;-68
2023/08/25 04:45:41;;;;;;;2.03;0.90;;;12.60;58.00;;;;;;5018105;28;20034;-67
2023/08/25 04:48:07;;;;;;;1.10;0.88;;;12.60;58.10;;;;;;5016594;28;20101;-68
2023/08/25 04:50:34;;;;;;;1.05;0.82;;;12.60;58.20;;;;;;5038575;28;20548;-70
2023/08/25 04:53:00;;;;;;;2.40;0.98;;;12.50;58.00;;;;;;5009545;28;20104;-72
2023/08/25 04:55:27;;;;;;;1.23;0.70;;;12.50;58.10;;;;;;5022727;28;20037;-71
2023/08/25 04:57:53;;;;;;;0.80;0.70;;;12.50;58.20;;;;;;5021079;28;20041;-70
2023/08/25 05:00:19;;;;;;;1.38;0.70;;;12.50;58.20;;;;;;5026355;28;20026;-73
2023/08/25 05:02:49;;;;;;;1.50;0.88;;;12.50;58.30;;;;;;5017977;28;20045;-72
2023/08/25 05:05:17;;;;;;;2.15;0.80;;;12.50;58.40;;;;;;5017076;28;20037;-69
2023/08/25 05:07:44;;;;;;;4.32;1.95;;;12.50;58.50;;;;;;5014750;28;20037;-72
2023/08/25 05:10:11;;;;;;;0.90;0.80;;;12.40;58.30;;;;;;5014194;28;20026;-68
2023/08/25 05:12:40;;;;;;;1.98;0.80;;;12.40;58.40;;;;;;5010814;28;20501;-69
2023/08/25 05:15:07;;;;;;;2.55;0.90;;;12.40;58.60;;;;;;5007544;28;20036;-72
2023/08/25 05:17:34;;;;;;;1.58;0.90;;;12.40;58.60;;;;;;5008033;28;20076;-69
2023/08/25 05:20:00;;;;;;;1.60;0.65;;;12.40;58.70;;;;;;5016117;28;20390;-69
2023/08/25 05:22:28;;;;;;;2.47;0.98;;;12.40;58.80;;;;;;4999501;28;20551;-68
2023/08/25 05:24:54;;;;;;;0.95;0.80;;;12.40;58.90;;;;;;5009564;28;20402;-68
2023/08/25 05:27:20;;;;;;;2.42;0.82;;;12.40;58.90;;;;;;5012235;28;20128;-70
2023/08/25 05:29:46;;;;;;;0.90;0.90;;;12.40;59.00;;;;;;5014022;28;20041;-70
2023/08/25 05:32:17;;;;;;;2.25;0.70;;;12.40;59.00;;;;;;5010749;28;20090;-70
2023/08/25 05:35:03;;;;;;;1.60;0.82;;;12.40;59.00;;;;;;5012446;28;20065;-69
2023/08/25 05:37:33;;;;;;;0.82;0.80;;;12.40;59.00;;;;;;5018091;28;20083;-68
2023/08/25 05:39:59;;;;;;;1.80;0.80;;;12.40;59.00;;;;;;5006748;28;20037;-73
2023/08/25 05:42:28;;;;;;;2.28;0.77;;;12.40;59.10;;;;;;5009685;28;20029;-70
2023/08/25 05:44:55;;;;;;;1.45;0.75;;;12.50;59.20;;;;;;5016164;28;20485;-70
2023/08/25 05:47:21;;;;;;;0.85;0.70;;;12.50;59.20;;;;;;5010858;28;20074;-68
2023/08/25 05:49:47;;;;;;;2.25;0.90;;;12.60;59.40;;;;;;5006816;28;20046;-68
2023/08/25 05:52:13;;;;;;;1.60;0.90;;;12.60;59.40;;;;;;5018501;28;20147;-69
2023/08/25 05:54:39;;;;;;;2.63;1.00;;;12.70;59.50;;;;;;5002105;28;20057;-72
2023/08/25 05:57:06;;;;;;;3.25;1.15;;;12.70;59.50;;;;;;5013220;28;20034;-69
2023/08/25 05:59:32;;;;;;;1.52;0.90;;;12.80;59.70;;;;;;5009593;28;20084;-69
2023/08/25 06:01:58;;;;;;;1.17;0.70;;;12.80;59.70;;;;;;5010826;28;20093;-68
2023/08/25 06:04:25;;;;;;;1.65;0.80;;;12.90;59.90;;;;;;5014832;28;20182;-68
2023/08/25 06:06:51;;;;;;;1.08;0.90;;;12.90;59.90;;;;;;5012759;28;20053;-69
2023/08/25 06:09:17;;;;;;;1.48;0.88;;;13.00;60.00;;;;;;5016715;28;20022;-71
2023/08/25 06:11:44;;;;;;;1.13;0.70;;;13.10;60.10;;;;;;5006226;28;20548;-70
2023/08/25 06:14:11;;;;;;;1.33;1.23;;;13.10;60.00;;;;;;5015021;28;20409;-72
2023/08/25 06:16:41;;;;;;;1.10;0.80;;;13.20;60.10;;;;;;5015640;28;20034;-70
2023/08/25 06:19:08;;;;;;;2.33;0.90;;;13.20;60.10;;;;;;5017322;28;20449;-71
2023/08/25 06:21:35;;;;;;;2.72;1.17;;;13.30;60.10;;;;;;5020712;28;20378;-70
2023/08/25 06:24:01;;;;;;;0.82;0.52;;;13.30;60.10;;;;;;5020399;28;20029;-70
2023/08/25 06:26:29;;;;;;;2.13;0.85;;;13.30;60.10;;;;;;5008994;28;20144;-70
2023/08/25 06:28:56;;;;;;;1.88;0.73;;;13.40;60.30;;;;;;5002282;28;20112;-71
2023/08/25 06:31:23;;;;;;;2.28;1.00;;;13.40;60.20;;;;;;5011375;28;20526;-71
2023/08/25 06:33:49;;;;;;;1.13;0.73;;;13.40;60.20;;;;;;5009105;28;20473;-69
2023/08/25 06:36:15;;;;;;;1.98;1.00;;;13.60;60.50;;;;;;5016064;28;20065;-71
2023/08/25 06:38:42;;;;;;;1.45;0.90;;;13.70;61.10;;;;;;5014639;28;20140;-71
2023/08/25 06:41:08;;;;;;;3.20;0.93;;;13.80;60.60;;;;;;5016431;28;20435;-72
2023/08/25 06:43:34;;;;;;;3.53;0.90;;;13.90;60.80;;;;;;5017372;28;20040;-72
2023/08/25 06:46:01;;;;;;;2.55;0.90;;;14.00;60.90;;;;;;5013951;28;20030;-72
2023/08/25 06:48:28;;;;;;;1.05;0.95;;;14.10;61.10;;;;;;5016266;28;20064;-71
2023/08/25 06:50:55;;;;;;;1.38;0.80;;;14.10;60.90;;;;;;5011055;28;20054;-72
2023/08/25 06:53:22;;;;;;;1.48;1.00;;;14.20;60.90;;;;;;5015809;28;20485;-72
2023/08/25 06:55:48;;;;;;;5.38;0.98;;;14.30;61.00;;;;;;5018745;28;20223;-72
2023/08/25 06:58:15;;;;;;;1.33;0.90;;;14.30;61.00;;;;;;5018177;28;20029;-72
2023/08/25 07:00:41;;;;;;;2.08;1.13;;;14.40;61.20;;;;;;5012243;28;20033;-71
2023/08/25 07:03:09;;;;;;;1.45;1.05;;;14.40;61.20;;;;;;5020823;28;20029;-72
2023/08/25 07:05:38;;;;;;;3.65;1.77;;;14.60;61.40;;;;;;5018679;28;20088;-72
2023/08/25 07:08:07;;;;;;;2.38;1.10;;;14.70;61.50;;;;;;5015191;28;20120;-72
2023/08/25 07:10:35;;;;;;;6.15;1.10;;;15.00;61.90;;;;;;5015125;28;20030;-72
2023/08/25 07:13:02;;;;;;;1.73;1.40;;;15.50;62.00;;;;;;5014995;28;20029;-72
2023/08/25 07:15:29;;;;;;;2.53;1.20;;;16.00;61.50;;;;;;5014982;28;20024;-72
2023/08/25 07:17:55;;;;;;;2.92;0.98;;;16.30;60.80;;;;;;5017775;28;20037;-72
2023/08/25 07:20:22;;;;;;;3.30;1.10;;;16.50;60.50;;;;;;5014742;28;20781;-72
2023/08/25 07:22:50;;;;;;;3.65;1.50;;;16.60;60.40;;;;;;5016257;28;20122;-72
2023/08/25 07:25:17;;;;;;;2.47;1.40;;;16.70;61.20;;;;;;5009573;28;20026;-72
2023/08/25 07:27:44;;;;;;;2.97;1.63;;;16.90;60.80;;;;;;5017595;28;20053;-72
2023/08/25 07:30:11;;;;;;;6.38;1.40;;;16.80;60.60;;;;;;5017699;28;20481;-71
2023/08/25 07:32:40;;;;;;;2.63;1.52;;;16.80;61.00;;;;;;5010918;28;20065;-71
2023/08/25 07:35:08;;;;;;;5.38;1.60;;;16.80;61.10;;;;;;5013121;28;20099;-71
2023/08/25 07:37:37;;;;;;;2.40;1.55;;;17.00;61.20;;;;;;5015576;28;20037;-72
2023/08/25 07:40:05;;;;;;;4.78;1.48;;;17.10;61.10;;;;;;5012475;28;20033;-71
2023/08/25 07:42:32;;;;;;;4.05;1.60;;;17.20;61.20;;;;;;5013679;28;20091;-71
2023/08/25 07:44:58;;;;;;;4.30;1.42;;;17.20;61.20;;;;;;5015860;28;20029;-72
2023/08/25 07:47:27;;;;;;;5.05;1.52;;;17.30;61.40;;;;;;5014999;28;20235;-72
2023/08/25 07:49:53;;;;;;;4.53;1.67;;;17.50;61.50;;;;;;5011515;28;20042;-72
2023/08/25 07:52:20;;;;;;;4.40;1.52;;;17.70;61.30;;;;;;5012182;28;20053;-72
2023/08/25 07:54:46;;;;;;;2.78;1.20;;;18.00;61.30;;;;;;5011991;28;20042;-73
2023/08/25 07:57:13;;;;;;;3.63;1.30;;;18.20;61.10;;;;;;5007441;28;20490;-73
2023/08/25 07:59:40;;;;;;;3.13;1.20;;;18.30;61.00;;;;;;5010232;28;20030;-72
2023/08/25 08:02:06;;;;;;;6.30;2.03;;;18.30;60.90;;;;;;5004309;28;20037;-72
2023/08/25 08:04:32;;;;;;;3.03;1.30;;;18.20;60.80;;;;;;5012358;28;20037;-71
2023/08/25 08:07:00;;;;;;;4.00;1.40;;;18.20;61.00;;;;;;5004510;28;20037;-72
2023/08/25 08:09:27;;;;;;;4.38;1.75;;;18.10;61.10;;;;;;5014751;28;20034;-72
2023/08/25 08:11:53;;;;;;;2.25;1.33;;;18.00;61.40;;;;;;5002578;28;20486;-71
2023/08/25 08:14:20;;;;;;;5.03;1.58;;;17.90;61.60;;;;;;5013688;28;20481;-72
2023/08/25 08:16:47;;;;;;;6.90;1.55;;;17.90;61.90;;;;;;5003814;28;20315;-71
2023/08/25 08:19:13;;;;;;;4.85;1.40;;;17.90;62.10;;;;;;5011028;28;20026;-72
2023/08/25 08:21:39;;;;;;;5.13;1.70;;;18.00;62.30;;;;;;5007101;28;20026;-71
2023/08/25 08:24:06;;;;;;;4.32;1.98;;;18.00;62.30;;;;;;5014918;28;20140;-71
2023/08/25 08:26:32;;;;;;;8.25;2.53;;;18.00;62.40;;;;;;5013274;28;20034;-71
2023/08/25 08:28:59;;;;;;;12.23;2.90;;;18.00;62.50;;;;;;5009555;28;20029;-71
2023/08/25 08:31:25;;;;;;;4.55;1.52;;;18.20;62.80;;;;;;5006318;28;20108;-71
2023/08/25 08:33:52;;;;;;;4.07;1.70;;;18.30;62.80;;;;;;5011728;28;20426;-71
2023/08/25 08:36:19;;;;;;;4.20;1.75;;;18.40;62.80;;;;;;5013835;28;20461;-71
2023/08/25 08:38:46;;;;;;;10.02;2.28;;;18.60;62.90;;;;;;5013311;28;20406;-71
2023/08/25 08:41:15;;;;;;;3.60;1.92;;;18.80;62.90;;;;;;5012758;28;20026;-72
2023/08/25 08:43:47;;;;;;;4.18;1.80;;;19.00;62.80;;;;;;5009078;28;20331;-71
2023/08/25 08:46:17;;;;;;;2.85;1.50;;;19.20;62.70;;;;;;5009916;28;20037;-71
2023/08/25 08:48:44;;;;;;;3.35;1.55;;;19.40;62.60;;;;;;5010935;28;20030;-72
2023/08/25 08:51:14;;;;;;;7.82;2.53;;;19.50;62.30;;;;;;5008854;28;20137;-71
2023/08/25 08:53:41;;;;;;;3.17;1.33;;;19.70;62.10;;;;;;5015376;28;20033;-72
2023/08/25 08:56:08;;;;;;;3.72;1.52;;;19.80;61.80;;;;;;5010316;28;20659;-71
2023/08/25 08:58:34;;;;;;;2.70;1.17;;;20.00;61.80;;;;;;5014141;28;20040;-73
2023/08/25 09:01:03;;;;;;;4.70;1.52;;;20.10;61.60;;;;;;5010243;28;20029;-72
2023/08/25 09:03:33;;;;;;;3.08;1.88;;;20.20;61.30;;;;;;5014870;28;20136;-71
2023/08/25 09:06:03;;;;;;;5.55;1.88;;;20.30;61.00;;;;;;5017501;28;20092;-72
2023/08/25 09:08:31;;;;;;;2.67;1.08;;;20.40;60.70;;;;;;5010599;28;20069;-71
2023/08/25 09:11:05;;;;;;;6.95;2.50;;;20.40;61.00;;;;;;5015989;28;20116;-71
2023/08/25 09:13:33;;;;;;;2.85;1.50;;;20.50;60.40;;;;;;5011700;28;20472;-71
2023/08/25 09:16:11;;;;;;;2.88;1.55;;;20.50;60.20;;;;;;5004446;28;20030;-72
2023/08/25 09:18:39;;;;;;;3.70;1.60;;;20.60;60.00;;;;;;5011848;28;20041;-71
2023/08/25 09:21:16;;;;;;;4.72;1.23;;;20.70;59.90;;;;;;5016447;28;20545;-71
2023/08/25 09:23:54;;;;;;;3.58;1.52;;;20.90;59.70;;;;;;5003581;28;20080;-71
2023/08/25 09:26:21;;;;;;;3.35;1.42;;;21.00;59.50;;;;;;5013312;28;20061;-71
2023/08/25 09:28:47;;;;;;;2.85;1.65;;;21.10;59.40;;;;;;5015358;28;20037;-71
2023/08/25 09:31:24;;;;;;;5.03;1.75;;;21.30;59.30;;;;;;5010068;28;20110;-71
2023/08/25 09:33:52;;;;;;;2.88;1.20;;;21.40;58.80;;;;;;5014739;28;20397;-70
2023/08/25 09:36:19;;;;;;;4.18;1.60;;;21.60;58.80;;;;;;5017014;28;20052;-71
2023/08/25 09:38:48;;;;;;;9.65;1.88;;;21.70;58.40;;;;;;5017599;28;20103;-71
2023/08/25 09:41:29;;;;;;;4.50;1.58;;;21.80;58.10;;;;;;5003556;28;20129;-71
2023/08/25 09:44:00;;;;;;;5.18;1.20;;;21.90;57.80;;;;;;5008599;28;20339;-70
2023/08/25 09:46:28;;;;;;;6.10;1.45;;;22.00;57.80;;;;;;5011337;28;20557;-71
2023/08/25 09:49:01;;;;;;;1.42;1.00;;;22.00;57.80;;;;;;5005004;28;20377;-70
2023/08/25 09:51:39;;;;;;;2.92;1.30;;;22.10;57.80;;;;;;5019702;28;20045;-71
2023/08/25 09:54:15;;;;;;;4.43;1.10;;;22.10;57.70;;;;;;5016616;28;20417;-71
2023/08/25 09:56:43;;;;;;;3.20;0.75;;;22.20;57.70;;;;;;5011415;28;20026;-71
2023/08/25 09:59:11;;;;;;;2.25;1.30;;;22.30;57.70;;;;;;5019697;28;20041;-70
2023/08/25 10:01:44;;;;;;;3.90;1.05;;;22.30;57.50;;;;;;5009020;28;20696;-71
2023/08/25 10:04:10;;;;;;;2.80;0.90;;;22.40;57.60;;;;;;5017298;28;20524;-70
2023/08/25 10:06:39;;;;;;;4.13;0.90;;;22.30;57.50;;;;;;5011927;28;20049;-70
2023/08/25 10:09:08;;;;;;;4.38;1.52;;;22.30;57.60;;;;;;5016271;28;20136;-70
2023/08/25 10:11:40;;;;;;;2.63;1.20;;;22.20;57.50;;;;;;5010569;28;20099;-70
2023/08/25 10:14:10;;;;;;;2.38;1.48;;;22.10;57.50;;;;;;5017791;28;20034;-70
2023/08/25 10:16:42;;;;;;;1.42;0.82;;;22.00;57.40;;;;;;5006976;28;20034;-70
2023/08/25 10:19:14;;;;;;;4.70;1.10;;;22.00;57.60;;;;;;5011338;28;20572;-71
2023/08/25 10:21:45;;;;;;;2.10;1.30;;;21.90;57.50;;;;;;5013820;28;20485;-71
2023/08/25 10:24:14;;;;;;;6.45;1.58;;;21.80;57.30;;;;;;5011951;28;20037;-71
2023/08/25 10:26:43;;;;;;;4.68;1.20;;;21.90;57.50;;;;;;5008325;28;20049;-71
2023/08/25 10:29:10;;;;;;;3.10;1.65;;;21.80;57.30;;;;;;5014863;28;20116;-71
2023/08/25 10:31:45;;;;;;;4.97;1.40;;;21.70;57.20;;;;;;5015995;28;20338;-71
2023/08/25 10:34:30;;;;;;;5.47;1.85;;;21.70;57.20;;;;;;5005346;28;20104;-71
2023/08/25 10:37:07;;;;;;;4.90;1.65;;;21.70;57.30;;;;;;5015838;28;20049;-70
2023/08/25 10:39:48;;;;;;;3.65;1.55;;;21.70;57.20;;;;;;5014884;28;20101;-71
2023/08/25 10:42:27;;;;;;;1.48;1.10;;;21.80;57.10;;;;;;5014207;28;20612;-71
2023/08/25 10:44:56;;;;;;;2.80;1.20;;;21.80;56.90;;;;;;5015309;28;20037;-70
2023/08/25 10:47:23;;;;;;;5.20;1.40;;;21.90;57.10;;;;;;5006529;28;20439;-71
2023/08/25 10:49:59;;;;;;;2.67;1.08;;;21.90;57.00;;;;;;5008563;28;20060;-71
2023/08/25 10:52:26;;;;;;;2.05;1.02;;;22.00;56.80;;;;;;5014160;28;20099;-70
2023/08/25 10:54:53;;;;;;;1.58;0.98;;;22.00;56.70;;;;;;5010460;28;20117;-72
2023/08/25 10:57:39;;;;;;;2.80;1.20;;;22.10;56.70;;;;;;5011921;28;20531;-71
2023/08/25 11:00:29;;;;;;;5.43;1.77;;;22.10;56.70;;;;;;5008985;28;20343;-71
2023/08/25 11:02:56;;;;;;;3.30;1.13;;;22.00;56.40;;;;;;5009421;28;20092;-71
2023/08/25 11:05:31;;;;;;;4.22;1.05;;;21.90;56.40;;;;;;5012796;28;20159;-72
2023/08/25 11:08:00;;;;;;;1.75;1.00;;;21.80;56.50;;;;;;5012699;28;20767;-71
2023/08/25 11:10:30;;;;;;;1.23;0.80;;;21.70;56.60;;;;;;5017782;28;20056;-70
2023/08/25 11:12:59;;;;;;;3.60;1.10;;;21.60;56.70;;;;;;5013503;28;20489;-70
2023/08/25 11:15:26;;;;;;;3.28;1.40;;;21.50;56.80;;;;;;5020176;28;20065;-68
2023/08/25 11:17:53;;;;;;;8.15;4.63;;;21.30;56.90;;;;;;5013777;28;20498;-70
2023/08/25 11:20:21;;;;;;;4.35;3.15;;;21.30;57.60;;;;;;5010672;28;20142;-69
2023/08/25 11:22:52;;;;;;;4.28;2.40;;;21.30;58.20;;;;;;5006691;28;20061;-69
2023/08/25 11:25:19;;;;;;;5.95;2.03;;;21.40;58.70;;;;;;5015041;28;20040;-69
2023/08/25 11:27:50;;;;;;;5.45;1.80;;;21.50;58.90;;;;;;5009423;28;20388;-69
2023/08/25 11:30:16;;;;;;;4.38;2.13;;;21.70;59.10;;;;;;5012277;28;20038;-69
2023/08/25 11:32:50;;;;;;;2.13;1.20;;;21.80;59.10;;;;;;5010765;28;20038;-69
2023/08/25 11:35:19;;;;;;;3.10;1.45;;;22.00;59.20;;;;;;5018791;28;20034;-69
2023/08/25 11:37:46;;;;;;;2.05;0.95;;;22.20;59.10;;;;;;5012716;28;20533;-69
2023/08/25 11:40:18;;;;;;;2.75;1.17;;;22.50;59.30;;;;;;5012777;28;20026;-69
2023/08/25 11:42:45;;;;;;;2.63;0.90;;;22.70;59.30;;;;;;5012335;28;20025;-69
2023/08/25 11:45:14;;;;;;;2.55;0.98;;;22.80;59.20;;;;;;5014707;28;20116;-70
2023/08/25 11:47:40;;;;;;;2.53;0.93;;;22.90;59.20;;;;;;5009728;28;20131;-69
2023/08/25 11:50:07;;;;;;;1.83;0.75;;;23.00;59.20;;;;;;5010554;28;20180;-69
2023/08/25 11:52:34;;;;;;;1.02;0.75;;;23.10;59.20;;;;;;5013533;28;20422;-69
2023/08/25 11:55:01;;;;;;;1.80;0.82;;;23.20;59.20;;;;;;5014128;28;20087;-69
2023/08/25 11:57:37;;;;;;;2.67;0.55;;;23.30;59.20;;;;;;5018678;28;20248;-70
2023/08/25 12:00:05;;;;;;;2.15;0.77;;;23.30;59.00;;;;;;5016532;28;20036;-70
2023/08/25 12:02:32;;;;;;;1.02;0.63;;;23.40;59.10;;;;;;5012290;28;20044;-70
2023/08/25 12:05:03;;;;;;;3.95;0.80;;;23.50;59.20;;;;;;5015320;28;20486;-71
2023/08/25 12:07:33;;;;;;;2.50;1.00;;;23.50;59.00;;;;;;5012986;28;20108;-70
2023/08/25 12:10:03;;;;;;;0.93;0.52;;;23.60;59.00;;;;;;5013550;28;20460;-71
2023/08/25 12:12:31;;;;;;;2.25;0.95;;;23.60;58.90;;;;;;4996362;28;20316;-72
2023/08/25 12:14:58;;;;;;;2.30;0.70;;;23.70;59.00;;;;;;5014400;28;20829;-71
2023/08/25 12:17:28;;;;;;;3.95;0.98;;;23.80;58.90;;;;;;5013929;28;20092;-72
2023/08/25 12:19:56;;;;;;;4.28;0.98;;;23.90;58.70;;;;;;5006432;28;20063;-70
2023/08/25 12:22:23;;;;;;;3.03;0.90;;;24.00;58.50;;;;;;5014207;28;20149;-72
2023/08/25 12:24:49;;;;;;;3.03;0.80;;;24.10;58.10;;;;;;5015136;28;20052;-72
2023/08/25 12:27:18;;;;;;;3.00;0.50;;;24.20;58.00;;;;;;5017490;28;20041;-72
2023/08/25 12:29:45;;;;;;;5.57;1.17;;;24.30;57.90;;;;;;5009028;28;20040;-71
2023/08/25 12:32:11;;;;;;;1.67;0.50;;;24.30;57.70;;;;;;5011282;28;20179;-72
2023/08/25 12:34:38;;;;;;;2.58;0.95;;;24.40;57.70;;;;;;5010655;28;20076;-72
2023/08/25 12:37:05;;;;;;;2.13;0.80;;;24.50;57.50;;;;;;5016429;28;20071;-71
2023/08/25 12:39:34;;;;;;;1.67;0.90;;;24.70;57.60;;;;;;5017607;28;20042;-71
2023/08/25 12:42:04;;;;;;;2.83;0.75;;;24.90;57.50;;;;;;5014872;28;20035;-72
2023/08/25 12:44:30;;;;;;;3.90;0.93;;;25.00;57.20;;;;;;5016240;28;20037;-73
2023/08/25 12:46:57;;;;;;;5.60;1.48;;;25.20;56.80;;;;;;5019310;28;20143;-72
2023/08/25 12:49:23;;;;;;;1.60;0.68;;;25.40;56.40;;;;;;5018449;28;20025;-72
2023/08/25 12:51:50;;;;;;;3.33;1.02;;;25.70;56.10;;;;;;5022189;28;20363;-73